Paros, Greece
Current Conditions -  °F | °C
As of 8:50 PM on Thursday 18 Dec 2014 (Local Time) from LGMK Reporting Station
Light Rain Light Rain  
Wind Chill: 55°   Ceiling: 8000
Heat Index: 55°   Visibility: 6mi
Dew Point: 50°   Wind: 5mph
Humidity: 82%   Direction: 360°N
Pressure: 30.03"   Gusts: NA
Location:  37.08°N, 25.15°E
Report Text: LGMK 181750Z 36004KT 9999 -RA FEW018TCU SCT025 BKN080 13/10 Q1017
Loading
Personal Weather Stations






























Interactive Weather Map New forecast layout! Learn more

10-Day Weather Forecast

Advertisements
Track Severe Weather on mobile